Terminal Aerodrome Forecast
Issued by NWS Pittsburgh, PA

Current Version | Previous Version | Graphics & Text | Print | Product List | Glossary On
Versions: 1 2 3 4 5 6 7 8 9 10 11 12 13 14 15 16 17 18 19 20 21 22 23 24 25 26 27
363
FTUS41 KPBZ 210420 AAA
TAFPIT
TAF AMD
KPIT 210420Z 2104/2206 20007KT P6SM BKN050
     FM210515 20006KT P6SM -SHRA SCT025 BKN040
     FM210700 20006KT P6SM BKN040
     FM211200 23006KT P6SM BKN025
     FM211800 27009KT P6SM SCT050
     FM212100 28010KT P6SM SCT250=

USA.gov is the U.S. government's official web portal to all federal, state and local government web resources and services.